Latest Weather Observations for Warburton

IDD60801

Issued at 11:35 pm CST Thursday 2 October 2014 (issued every 30 minutes, with the page automatically refreshed every 10 minutes)

About weather observations | Map of weather stations | Latest weather observations for NT | Other Formats
Station Details ID: 013011 Name: WARBURTON AIRFIELD Lat: -26.13 Lon: 126.58 Height: 459.0 m
Data from the previous 72 hours. | See also: Recent months at Warburton
Date/Time
CST
Temp
°C
App
Temp
°C
Dew
Point
Rel
Hum
%
Delta-T
°C
Wind Press
QNH
hPa
Press
MSL
hPa
Rain
since 9 am
mm
Dir
 
Spd
km/h
Gust
km/h
Spd
kts
Gust
kts
02/11:30pm 29.7 24.3 1.2 16 14.2 E 19 26 10 14 1015.0 - 0.0
02/11:00pm 29.6 24.7 2.0 17 13.9 E 17 22 9 12 1015.4 - 0.0
02/10:30pm 29.6 24.3 2.0 17 13.9 ESE 19 26 10 14 1015.6 1013.1 0.0
02/10:00pm 29.6 24.3 2.0 17 13.9 ESE 19 26 10 14 1015.9 - 0.0
02/09:30pm 30.1 24.3 2.4 17 14.1 ESE 22 30 12 16 1016.1 - 0.0
02/09:00pm 30.3 24.5 2.5 17 14.2 E 22 30 12 16 1016.0 - 0.0
02/08:30pm 30.4 25.6 2.6 17 14.2 E 17 22 9 12 1016.2 - 0.0
02/08:00pm 31.4 26.0 2.6 16 14.8 SE 20 32 11 17 1016.1 - 0.0
02/07:30pm 32.3 28.4 1.4 14 15.7 SSE 11 24 6 13 1015.8 1013.3 0.0
02/07:00pm 32.9 25.5 1.9 14 15.9 W 30 41 16 22 1015.4 - 0.0
02/06:39pm 33.2 24.9 2.1 14 16.0 S 35 57 19 31 1014.9 - 0.0
02/06:30pm 33.7 26.5 0.4 12 16.8 S 28 43 15 23 1014.6 - 0.0
02/06:29pm 33.8 26.6 0.5 12 16.8 S 28 41 15 22 1014.6 - 0.0
02/06:00pm 35.6 31.6 -2.1 9 18.4 W 9 11 5 6 1013.8 - 0.0
02/05:30pm 36.4 32.5 -1.5 9 18.8 NW 9 13 5 7 1013.5 - 0.0
02/05:00pm 36.6 33.3 -1.4 9 18.9 NW 6 13 3 7 1013.3 - 0.0
02/04:30pm 36.8 31.0 -1.2 9 19.0 NNE 19 24 10 13 1013.2 1010.7 0.0
02/04:00pm 37.7 32.9 -2.2 8 19.8 N 13 22 7 12 1013.3 - 0.0
02/03:30pm 37.0 31.3 -1.1 9 19.1 N 19 32 10 17 1013.7 - 0.0
02/03:00pm 37.8 32.5 -0.5 9 19.5 N 17 28 9 15 1014.0 - 0.0
02/02:30pm 37.7 32.4 -0.6 9 19.4 NNW 17 26 9 14 1014.6 - 0.0
02/02:00pm 36.6 31.2 -1.4 9 18.9 N 17 28 9 15 1015.1 - 0.0
02/01:30pm 36.4 31.4 -1.5 9 18.8 NNW 15 37 8 20 1015.6 1013.1 0.0
02/01:00pm 36.5 30.0 0.0 10 18.6 N 24 32 13 17 1016.0 - 0.0
02/12:30pm 35.3 28.8 0.4 11 17.7 NNE 24 39 13 21 1016.5 - 0.0
02/12:00pm 34.8 28.4 1.2 12 17.2 NNE 24 33 13 18 1017.1 - 0.0
02/11:30am 33.7 27.8 1.5 13 16.5 NNE 22 32 12 17 1017.6 - 0.0
02/11:00am 32.7 27.0 2.7 15 15.6 NNE 22 32 12 17 1018.0 - 0.0
02/10:30am 30.7 24.2 2.9 17 14.3 NNE 26 41 14 22 1018.4 1016.0 0.0
02/10:00am 29.2 21.7 3.2 19 13.3 NNE 32 43 17 23 1018.5 - 0.0
02/09:30am 27.3 20.2 3.7 22 12.1 NE 30 43 16 23 1018.8 - 0.0
02/09:00am 25.7 19.0 3.6 24 11.2 NE 28 39 15 21 1018.9 - 0.0
02/08:30am 24.4 17.7 3.7 26 10.4 NE 28 41 15 22 1018.7 - 0.0
02/08:00am 23.2 16.9 3.7 28 9.7 ENE 26 35 14 19 1018.6 - 0.0
02/07:30am 22.6 17.0 3.7 29 9.4 ENE 22 32 12 17 1018.5 1016.1 0.0
02/07:00am 21.8 17.2 3.5 30 9.0 ENE 17 28 9 15 1018.6 - 0.0
02/06:30am 20.8 17.7 3.5 32 8.4 E 9 17 5 9 1018.5 - 0.0
02/06:00am 21.2 16.5 3.4 31 8.7 E 17 24 9 13 1018.3 - 0.0
02/05:30am 21.0 16.3 3.2 31 8.6 E 17 22 9 12 1018.2 - 0.0
02/05:00am 21.4 16.8 3.6 31 8.7 E 17 24 9 13 1018.0 - 0.0
02/04:30am 21.6 16.5 3.3 30 8.9 ESE 19 24 10 13 1017.7 1015.2 0.0
02/04:00am 22.1 17.5 3.7 30 9.1 ESE 17 24 9 13 1017.7 - 0.0
02/03:30am 22.7 17.5 3.8 29 9.4 ESE 20 28 11 15 1017.8 - 0.0
02/03:00am 23.3 17.4 3.8 28 9.7 ESE 24 32 13 17 1017.9 - 0.0
02/02:30am 23.3 17.4 3.8 28 9.7 ESE 24 32 13 17 1018.0 - 0.0
02/02:00am 22.6 18.0 3.7 29 9.4 SE 17 20 9 11 1018.5 - 0.0
02/01:30am 22.9 18.6 3.4 28 9.6 SE 15 20 8 11 1018.8 1016.4 0.0
02/01:00am 23.4 18.7 3.4 27 9.9 SE 17 24 9 13 1019.0 - 0.0
02/12:30am 24.5 19.4 3.2 25 10.6 ESE 19 26 10 14 1019.3 - 0.0
02/12:00am 24.8 19.8 3.5 25 10.7 ESE 19 26 10 14 1019.5 - 0.0
 
Date/Time
CST
Temp
°C
App
Temp
°C
Dew
Point
Rel
Hum
%
Delta-T
°C
Wind Press
QNH
hPa
Press
MSL
hPa
Rain
since 9 am
mm
Dir
 
Spd
km/h
Gust
km/h
Spd
kts
Gust
kts
01/11:30pm 25.6 20.4 3.5 24 11.1 ESE 20 32 11 17 1019.6 - 0.0
01/11:00pm 26.6 21.0 3.2 22 11.8 ESE 22 32 12 17 1019.7 - 0.0
01/10:30pm 26.1 21.6 2.1 21 11.8 ESE 15 20 8 11 1019.7 1017.2 0.0
01/10:00pm 26.6 21.7 1.8 20 12.2 ESE 17 20 9 11 1019.5 - 0.0
01/09:30pm 26.3 22.1 1.6 20 12.1 ESE 13 17 7 9 1019.4 - 0.0
01/09:00pm 26.5 22.7 1.7 20 12.2 ESE 11 13 6 7 1019.0 - 0.0
01/08:30pm 27.7 23.8 1.2 18 13.0 SE 11 11 6 6 1018.7 - 0.0
01/08:00pm 29.4 25.1 1.0 16 14.0 SE 13 15 7 8 1018.4 - 0.0
01/07:30pm 30.1 26.1 0.6 15 14.5 ESE 11 13 6 7 1018.2 1015.8 0.0
01/07:00pm 31.5 26.8 0.8 14 15.3 ESE 15 20 8 11 1017.9 - 0.0
01/06:30pm 32.3 27.7 1.4 14 15.7 ESE 15 26 8 14 1017.5 - 0.0
01/06:00pm 33.2 28.2 1.1 13 16.3 ESE 17 35 9 19 1017.3 - 0.0
01/05:30pm 34.0 28.9 0.6 12 16.9 E 17 26 9 14 1017.3 - 0.0
01/05:00pm 34.1 29.0 0.7 12 16.9 ENE 17 28 9 15 1017.2 - 0.0
01/04:30pm 34.0 27.9 0.6 12 16.9 ENE 22 33 12 18 1017.2 1014.7 0.0
01/04:00pm 34.4 29.1 -0.3 11 17.3 E 17 32 9 17 1017.4 - 0.0
01/03:30pm 34.5 27.9 -0.2 11 17.4 ENE 24 32 13 17 1017.6 - 0.0
01/03:00pm 34.0 27.9 0.6 12 16.9 E 22 32 12 17 1018.0 - 0.0
01/02:30pm 34.0 27.5 0.6 12 16.9 ENE 24 37 13 20 1018.5 - 0.0
01/02:00pm 33.9 28.3 3.6 15 16.1 E 22 35 12 19 1019.0 - 0.0
01/01:30pm 32.6 27.3 5.2 18 14.8 E 22 37 12 20 1019.8 1017.3 0.0
01/01:00pm 31.8 26.0 6.1 20 14.0 E 26 39 14 21 1020.4 - 0.0
01/12:30pm 30.5 25.1 6.4 22 13.1 E 24 41 13 22 1021.1 - 0.0
01/12:00pm 29.0 22.9 6.4 24 12.2 E 28 41 15 22 1021.7 - 0.0
01/11:30am 27.7 22.4 7.0 27 11.2 E 24 35 13 19 1022.3 - 0.0
01/11:00am 26.1 20.1 7.2 30 10.2 E 28 41 15 22 1022.7 - 0.0
01/10:30am 24.6 17.9 7.3 33 9.2 E 32 43 17 23 1023.0 1020.6 0.0
01/10:00am 23.9 17.6 7.5 35 8.8 E 30 43 16 23 1023.2 - 0.0
01/09:32am 22.5 15.8 7.5 38 8.0 E 32 50 17 27 1023.3 - 0.0
01/09:30am 21.8 14.5 7.2 39 7.7 E 35 50 19 27 1023.3 - 0.0
01/09:00am 21.1 14.8 7.3 41 7.3 E 30 43 16 23 1023.2 - 0.0
01/08:30am 19.4 12.1 7.2 45 6.3 ESE 35 50 19 27 1022.9 - 0.0
01/08:00am 18.9 11.9 7.0 46 6.1 ESE 33 50 18 27 1022.7 - 0.0
01/07:39am 18.6 11.6 6.8 46 6.0 ESE 33 54 18 29 1022.3 - 0.0
01/07:30am 18.3 11.5 6.8 47 5.9 ESE 32 43 17 23 1022.3 1019.9 0.0
01/07:00am 17.9 12.1 6.1 46 5.9 ESE 26 37 14 20 1022.1 - 0.0
01/06:30am 18.1 12.2 6.0 45 6.1 ESE 26 37 14 20 1021.8 - 0.0
01/06:00am 18.5 13.0 5.7 43 6.4 SE 24 33 13 18 1021.8 - 0.0
01/05:30am 19.1 13.5 5.2 40 6.9 ESE 24 33 13 18 1021.2 - 0.0
01/05:00am 19.6 12.8 4.9 38 7.3 ESE 30 39 16 21 1020.8 - 0.0
01/04:30am 20.0 13.5 4.9 37 7.5 ESE 28 41 15 22 1020.6 1018.2 0.0
01/04:00am 20.3 14.1 4.4 35 7.9 ESE 26 39 14 21 1020.5 - 0.0
01/03:30am 20.7 13.7 4.3 34 8.1 ESE 30 44 16 24 1020.4 - 0.0
01/03:00am 21.0 13.5 3.7 32 8.5 ESE 32 44 17 24 1020.3 - 0.0
01/02:45am 21.3 14.2 3.5 31 8.7 ESE 30 48 16 26 1020.2 - 0.0
01/02:30am 21.5 13.9 3.7 31 8.8 ESE 33 46 18 25 1020.2 - 0.0
01/02:00am 22.0 15.2 3.2 29 9.2 ESE 28 44 15 24 1020.3 - 0.0
01/01:49am 22.2 15.4 3.3 29 9.3 ESE 28 46 15 25 1020.3 - 0.0
01/01:30am 22.4 15.5 2.5 27 9.6 ESE 28 43 15 23 1020.2 1017.8 0.0
01/01:00am 23.0 16.1 2.5 26 10.0 SE 28 39 15 21 1020.4 - 0.0
01/12:30am 23.4 16.7 1.7 24 10.4 SE 26 37 14 20 1020.5 - 0.0
01/12:00am 23.9 17.5 0.9 22 10.9 SE 24 39 13 21 1020.4 - 0.0
 
Date/Time
CST
Temp
°C
App
Temp
°C
Dew
Point
Rel
Hum
%
Delta-T
°C
Wind Press
QNH
hPa
Press
MSL
hPa
Rain
since 9 am
mm
Dir
 
Spd
km/h
Gust
km/h
Spd
kts
Gust
kts
30/11:30pm 24.5 17.6 0.1 20 11.5 SE 26 39 14 21 1020.5 - 0.0
30/11:00pm 25.3 17.9 -0.7 18 12.1 SE 28 39 15 21 1020.3 - 0.0
30/10:30pm 25.8 19.0 -1.9 16 12.6 SE 24 35 13 19 1020.2 1018.6 0.0
30/10:00pm 26.5 18.9 -2.2 15 13.1 SE 28 39 15 21 1020.0 - 0.0
30/09:30pm 26.8 20.6 -2.9 14 13.5 SE 20 30 11 16 1019.8 - 0.0
30/09:00pm 27.4 21.0 -4.5 12 14.1 SSE 20 32 11 17 1019.4 - 0.0
30/08:30pm 27.5 22.1 -4.4 12 14.1 SSE 15 20 8 11 1018.8 - 0.0
30/08:00pm 28.9 22.7 -4.5 11 14.9 SSE 19 26 10 14 1018.3 - 0.0
30/07:30pm 29.7 23.9 -5.1 10 15.5 S 17 28 9 15 1017.8 1016.2 0.0
30/07:00pm 30.9 24.8 -4.2 10 16.0 SSE 19 26 10 14 1017.4 - 0.0
30/06:30pm 32.1 27.1 -4.7 9 16.8 S 13 20 7 11 1017.0 - 0.0
30/06:00pm 32.8 26.7 -4.2 9 17.2 SSE 19 22 10 12 1016.6 - 0.0
30/05:30pm 33.3 28.4 -3.8 9 17.4 S 13 20 7 11 1016.4 - 0.0
30/05:00pm 33.1 26.4 -4.0 9 17.3 S 22 32 12 17 1016.2 - 0.0
30/04:30pm 32.8 26.7 -4.2 9 17.1 SSW 19 28 10 15 1016.3 1014.7 0.0
30/04:00pm 33.7 28.8 -3.5 9 17.6 SSW 13 20 7 11 1016.3 - 0.0
30/03:30pm 33.2 29.0 -3.9 9 17.3 S 9 19 5 10 1016.5 - 0.0
30/03:00pm 33.6 28.7 -3.6 9 17.5 S 13 26 7 14 1016.7 - 0.0
30/02:30pm 33.3 27.4 -2.4 10 17.1 SW 19 30 10 16 1017.0 - 0.0
30/02:00pm 33.0 26.7 -4.0 9 17.2 SSW 20 35 11 19 1017.3 - 0.0
30/01:30pm 32.2 26.7 -2.0 11 16.4 SE 17 26 9 14 1017.6 1016.0 0.0
30/01:00pm 32.1 27.4 -2.0 11 16.3 S 13 20 7 11 1018.0 - 0.0
30/12:30pm 32.4 27.5 -0.6 12 16.2 S 15 28 8 15 1018.5 - 0.0
30/12:00pm 31.3 26.4 -0.4 13 15.5 E 15 26 8 14 1018.8 - 0.0
30/11:30am 30.4 24.5 -1.1 13 15.1 E 20 28 11 15 1018.9 - 0.0
30/11:00am 30.0 23.6 -1.4 13 15.0 E 22 32 12 17 1019.2 - 0.0
30/10:30am 29.8 22.8 -0.5 14 14.6 ESE 26 37 14 20 1019.3 1017.7 0.0
30/10:00am 28.5 22.8 0.3 16 13.7 ESE 20 30 11 16 1019.2 - 0.0
30/09:30am 27.1 21.1 0.8 18 12.8 ESE 22 32 12 17 1019.0 - 0.0
30/09:00am 25.5 19.6 1.6 21 11.6 ESE 22 30 12 16 1018.9 - 0.0
30/08:30am 23.2 18.6 1.5 24 10.4 ESE 15 24 8 13 1018.9 - 0.0
30/08:00am 20.4 16.8 0.8 27 9.0 SSE 9 13 5 7 1018.5 - 0.0
30/07:30am 17.3 13.7 0.5 32 7.5 SSW 9 13 5 7 1018.5 1017.0 0.0
30/07:00am 14.9 11.6 0.4 37 6.3 SSW 7 11 4 6 1018.3 - 0.0
30/06:30am 15.8 12.2 0.4 35 6.8 SSW 9 11 5 6 1017.9 - 0.0
30/06:00am 16.0 13.7 0.2 34 6.9 SW 2 6 1 3 1017.5 - 0.0
30/05:30am 17.5 13.8 0.2 31 7.7 SSW 9 11 5 6 1017.1 - 0.0
30/05:00am 18.0 14.4 0.6 31 7.8 SE 9 13 5 7 1016.5 - 0.0
30/04:30am 17.8 13.8 0.5 31 7.8 ESE 11 13 6 7 1016.4 1014.8 0.0
30/04:00am 17.5 13.5 0.6 32 7.6 ESE 11 11 6 6 1016.2 - 0.0
30/03:30am 17.9 14.3 0.6 31 7.8 S 9 11 5 6 1016.2 - 0.0
30/03:00am 17.2 13.9 0.4 32 7.5 ENE 7 7 4 4 1016.1 - 0.0
30/02:30am 17.2 13.9 0.4 32 7.5 ESE 7 9 4 5 1016.0 - 0.0
30/02:00am 18.5 15.0 1.1 31 8.0 SSE 9 11 5 6 1016.1 - 0.0
30/01:30am 17.3 15.5 0.9 33 7.4 CALM 0 0 0 0 1016.2 1014.6 0.0

Other Formats:

Comma delimited format used in spreadsheet applications
http://www.bom.gov.au/fwo/IDD60801/IDD60801.94457.axf

JavaScript Object Notation format (JSON) in row-major order
http://www.bom.gov.au/fwo/IDD60801/IDD60801.94457.json